sensor_id;sensor_type;location;lat;lon;timestamp;pressure;altitude;pressure_sealevel;temperature;humidity
11912;BME280;6016;41.928;25.556;2022-08-05T00:01:32;99033.59;;;27.47;43.05
11912;BME280;6016;41.928;25.556;2022-08-05T00:03:59;98980.84;;;27.05;42.93
11912;BME280;6016;41.928;25.556;2022-08-05T00:06:26;99039.78;;;27.43;42.50
11912;BME280;6016;41.928;25.556;2022-08-05T00:08:53;99037.38;;;27.46;42.78
11912;BME280;6016;41.928;25.556;2022-08-05T00:11:20;99013.25;;;27.22;42.93
11912;BME280;6016;41.928;25.556;2022-08-05T00:13:48;99005.41;;;27.21;43.20
11912;BME280;6016;41.928;25.556;2022-08-05T00:16:15;99013.91;;;27.30;42.91
11912;BME280;6016;41.928;25.556;2022-08-05T00:18:43;99025.44;;;27.42;43.13
11912;BME280;6016;41.928;25.556;2022-08-05T00:21:10;99011.72;;;27.27;43.22
11912;BME280;6016;41.928;25.556;2022-08-05T00:23:38;99031.59;;;27.37;43.01
11912;BME280;6016;41.928;25.556;2022-08-05T00:26:05;99027.22;;;27.31;43.79
11912;BME280;6016;41.928;25.556;2022-08-05T00:28:33;99029.84;;;27.26;43.57
11912;BME280;6016;41.928;25.556;2022-08-05T00:31:03;99029.69;;;27.16;43.79
11912;BME280;6016;41.928;25.556;2022-08-05T00:33:30;99034.94;;;27.22;43.70
11912;BME280;6016;41.928;25.556;2022-08-05T00:35:57;99012.00;;;27.08;43.72
11912;BME280;6016;41.928;25.556;2022-08-05T00:38:25;99038.66;;;27.16;44.00
11912;BME280;6016;41.928;25.556;2022-08-05T00:40:53;98973.41;;;26.78;44.01
11912;BME280;6016;41.928;25.556;2022-08-05T00:43:21;99031.09;;;27.18;44.03
11912;BME280;6016;41.928;25.556;2022-08-05T00:45:48;99027.00;;;27.16;43.60
11912;BME280;6016;41.928;25.556;2022-08-05T00:48:21;99031.84;;;27.14;43.88
11912;BME280;6016;41.928;25.556;2022-08-05T00:50:49;99021.81;;;26.92;44.09
11912;BME280;6016;41.928;25.556;2022-08-05T00:53:19;99029.69;;;27.16;44.09
11912;BME280;6016;41.928;25.556;2022-08-05T00:55:46;99028.63;;;27.17;44.08
11912;BME280;6016;41.928;25.556;2022-08-05T00:58:14;99018.88;;;27.16;43.62
11912;BME280;6016;41.928;25.556;2022-08-05T01:00:41;98984.91;;;26.86;43.66
11912;BME280;6016;41.928;25.556;2022-08-05T01:03:09;99028.34;;;27.13;43.75
11912;BME280;6016;41.928;25.556;2022-08-05T01:05:38;99000.47;;;26.95;43.95
11912;BME280;6016;41.928;25.556;2022-08-05T01:08:05;98903.19;;;26.27;44.10
11912;BME280;6016;41.928;25.556;2022-08-05T01:10:37;98936.09;;;26.41;44.38
11912;BME280;6016;41.928;25.556;2022-08-05T01:13:12;98969.44;;;26.64;44.25
11912;BME280;6016;41.928;25.556;2022-08-05T01:15:45;98944.03;;;26.48;44.58
11912;BME280;6016;41.928;25.556;2022-08-05T01:18:18;99020.59;;;27.00;44.45
11912;BME280;6016;41.928;25.556;2022-08-05T01:20:52;98994.44;;;26.71;44.44
11912;BME280;6016;41.928;25.556;2022-08-05T01:23:34;99024.34;;;26.99;44.24
11912;BME280;6016;41.928;25.556;2022-08-05T01:26:17;99011.66;;;26.65;44.70
11912;BME280;6016;41.928;25.556;2022-08-05T01:28:51;99017.56;;;26.96;44.44
11912;BME280;6016;41.928;25.556;2022-08-05T01:31:25;98998.66;;;26.84;44.50
11912;BME280;6016;41.928;25.556;2022-08-05T01:33:57;98977.94;;;26.73;44.83
11912;BME280;6016;41.928;25.556;2022-08-05T01:36:28;99030.25;;;26.95;45.04
11912;BME280;6016;41.928;25.556;2022-08-05T01:38:58;99012.03;;;26.91;44.80
11912;BME280;6016;41.928;25.556;2022-08-05T01:41:27;98980.81;;;26.66;44.88
11912;BME280;6016;41.928;25.556;2022-08-05T01:43:57;98844.56;;;25.76;45.13
11912;BME280;6016;41.928;25.556;2022-08-05T01:46:25;98922.34;;;26.08;45.68
11912;BME280;6016;41.928;25.556;2022-08-05T01:48:53;99001.25;;;26.74;45.44
11912;BME280;6016;41.928;25.556;2022-08-05T01:51:21;99011.47;;;26.72;45.42
11912;BME280;6016;41.928;25.556;2022-08-05T01:53:51;98988.31;;;26.59;45.24
11912;BME280;6016;41.928;25.556;2022-08-05T01:56:19;99004.03;;;26.79;45.31
11912;BME280;6016;41.928;25.556;2022-08-05T01:58:49;98939.56;;;26.36;45.80
11912;BME280;6016;41.928;25.556;2022-08-05T02:01:20;98876.09;;;25.88;45.82
11912;BME280;6016;41.928;25.556;2022-08-05T02:03:50;98995.31;;;26.54;46.03
11912;BME280;6016;41.928;25.556;2022-08-05T02:06:19;98903.69;;;25.90;45.92
11912;BME280;6016;41.928;25.556;2022-08-05T02:08:46;99020.59;;;26.65;45.80
11912;BME280;6016;41.928;25.556;2022-08-05T02:11:15;98868.06;;;25.76;46.13
11912;BME280;6016;41.928;25.556;2022-08-05T02:13:46;98971.28;;;26.41;45.75
11912;BME280;6016;41.928;25.556;2022-08-05T02:16:21;99013.06;;;26.67;46.37
11912;BME280;6016;41.928;25.556;2022-08-05T02:18:52;99009.78;;;26.65;46.02
11912;BME280;6016;41.928;25.556;2022-08-05T02:21:24;99010.84;;;26.64;46.01
11912;BME280;6016;41.928;25.556;2022-08-05T02:23:52;99013.63;;;26.69;46.21
11912;BME280;6016;41.928;25.556;2022-08-05T02:26:23;99006.75;;;26.62;46.19
11912;BME280;6016;41.928;25.556;2022-08-05T02:28:53;99011.59;;;26.60;46.15
11912;BME280;6016;41.928;25.556;2022-08-05T02:31:26;99016.69;;;26.56;46.17
11912;BME280;6016;41.928;25.556;2022-08-05T02:33:57;99006.94;;;26.55;46.77
11912;BME280;6016;41.928;25.556;2022-08-05T02:36:26;98947.66;;;26.02;46.40
11912;BME280;6016;41.928;25.556;2022-08-05T02:38:55;99010.94;;;26.35;46.59
11912;BME280;6016;41.928;25.556;2022-08-05T02:41:24;99008.72;;;26.49;46.62
11912;BME280;6016;41.928;25.556;2022-08-05T02:43:52;98979.16;;;26.25;46.36
11912;BME280;6016;41.928;25.556;2022-08-05T02:46:23;98981.63;;;26.44;46.61
11912;BME280;6016;41.928;25.556;2022-08-05T02:48:52;99002.19;;;26.62;46.48
11912;BME280;6016;41.928;25.556;2022-08-05T02:51:20;99008.97;;;26.65;46.61
11912;BME280;6016;41.928;25.556;2022-08-05T02:53:48;99007.00;;;26.60;46.95
11912;BME280;6016;41.928;25.556;2022-08-05T02:56:16;99002.81;;;26.52;46.55
11912;BME280;6016;41.928;25.556;2022-08-05T02:58:43;99003.66;;;26.53;46.69
11912;BME280;6016;41.928;25.556;2022-08-05T03:01:17;98992.50;;;26.49;46.76
11912;BME280;6016;41.928;25.556;2022-08-05T03:03:49;99004.22;;;26.55;46.79
11912;BME280;6016;41.928;25.556;2022-08-05T03:06:19;98995.38;;;26.43;46.64
11912;BME280;6016;41.928;25.556;2022-08-05T03:08:47;99000.84;;;26.48;46.62
11912;BME280;6016;41.928;25.556;2022-08-05T03:11:18;99007.44;;;26.52;46.66
11912;BME280;6016;41.928;25.556;2022-08-05T03:13:45;99003.72;;;26.58;47.00
11912;BME280;6016;41.928;25.556;2022-08-05T03:16:13;98848.00;;;25.54;47.06
11912;BME280;6016;41.928;25.556;2022-08-05T03:18:40;98947.84;;;26.12;46.98
11912;BME280;6016;41.928;25.556;2022-08-05T03:21:09;98980.94;;;26.37;46.88
11912;BME280;6016;41.928;25.556;2022-08-05T03:23:38;99004.00;;;26.39;47.12
11912;BME280;6016;41.928;25.556;2022-08-05T03:26:07;98993.16;;;26.39;47.25
11912;BME280;6016;41.928;25.556;2022-08-05T03:28:34;99017.41;;;26.51;47.40
11912;BME280;6016;41.928;25.556;2022-08-05T03:31:02;99013.06;;;26.50;47.35
11912;BME280;6016;41.928;25.556;2022-08-05T03:33:30;99011.66;;;26.48;47.66
11912;BME280;6016;41.928;25.556;2022-08-05T03:35:58;99013.97;;;26.39;48.25
11912;BME280;6016;41.928;25.556;2022-08-05T03:38:26;99004.69;;;26.18;48.02
11912;BME280;6016;41.928;25.556;2022-08-05T03:40:53;98970.19;;;26.08;48.11
11912;BME280;6016;41.928;25.556;2022-08-05T03:43:20;98999.31;;;26.35;48.04
11912;BME280;6016;41.928;25.556;2022-08-05T03:45:49;98883.53;;;25.63;47.92
11912;BME280;6016;41.928;25.556;2022-08-05T03:48:17;99018.97;;;26.47;48.24
11912;BME280;6016;41.928;25.556;2022-08-05T03:50:54;99029.56;;;26.49;48.13
11912;BME280;6016;41.928;25.556;2022-08-05T03:53:29;99019.56;;;26.49;48.34
11912;BME280;6016;41.928;25.556;2022-08-05T03:55:59;99021.69;;;26.47;48.65
11912;BME280;6016;41.928;25.556;2022-08-05T03:58:30;98965.13;;;26.11;48.54
11912;BME280;6016;41.928;25.556;2022-08-05T04:01:01;98983.25;;;26.28;48.58
11912;BME280;6016;41.928;25.556;2022-08-05T04:03:28;99010.53;;;26.44;48.76
11912;BME280;6016;41.928;25.556;2022-08-05T04:06:00;99016.34;;;26.35;49.02
11912;BME280;6016;41.928;25.556;2022-08-05T04:08:29;99016.63;;;26.34;49.03
11912;BME280;6016;41.928;25.556;2022-08-05T04:10:56;99022.03;;;26.34;49.01
11912;BME280;6016;41.928;25.556;2022-08-05T04:13:24;99016.22;;;26.42;48.78
11912;BME280;6016;41.928;25.556;2022-08-05T04:15:51;99017.91;;;26.48;48.82
11912;BME280;6016;41.928;25.556;2022-08-05T04:18:18;99007.66;;;26.50;48.73
11912;BME280;6016;41.928;25.556;2022-08-05T04:20:52;98991.38;;;26.45;48.51
11912;BME280;6016;41.928;25.556;2022-08-05T04:23:21;99008.97;;;26.48;48.97
11912;BME280;6016;41.928;25.556;2022-08-05T04:25:50;99000.72;;;26.37;49.22
11912;BME280;6016;41.928;25.556;2022-08-05T04:28:17;99006.34;;;26.53;49.06
11912;BME280;6016;41.928;25.556;2022-08-05T04:30:44;99012.56;;;26.53;49.21
11912;BME280;6016;41.928;25.556;2022-08-05T04:33:11;99010.63;;;26.49;49.25
11912;BME280;6016;41.928;25.556;2022-08-05T04:35:39;99013.63;;;26.52;49.57
11912;BME280;6016;41.928;25.556;2022-08-05T04:38:06;99015.53;;;26.52;49.21
11912;BME280;6016;41.928;25.556;2022-08-05T04:40:33;98997.75;;;26.56;49.06
11912;BME280;6016;41.928;25.556;2022-08-05T04:43:02;98997.22;;;26.59;49.03
11912;BME280;6016;41.928;25.556;2022-08-05T04:45:30;98948.16;;;26.16;49.34
11912;BME280;6016;41.928;25.556;2022-08-05T04:48:02;99001.63;;;26.43;49.52
11912;BME280;6016;41.928;25.556;2022-08-05T04:50:29;98993.91;;;26.35;50.11
11912;BME280;6016;41.928;25.556;2022-08-05T04:52:56;98969.69;;;26.11;49.85
11912;BME280;6016;41.928;25.556;2022-08-05T04:55:23;98849.91;;;25.42;49.89
11912;BME280;6016;41.928;25.556;2022-08-05T04:57:50;98996.84;;;26.33;49.83
11912;BME280;6016;41.928;25.556;2022-08-05T05:00:18;98988.75;;;26.33;49.96
11912;BME280;6016;41.928;25.556;2022-08-05T05:02:45;98981.53;;;26.22;50.08
11912;BME280;6016;41.928;25.556;2022-08-05T05:05:12;98958.97;;;26.16;49.54
11912;BME280;6016;41.928;25.556;2022-08-05T05:07:39;98864.69;;;25.51;49.53
11912;BME280;6016;41.928;25.556;2022-08-05T05:10:06;98990.19;;;26.41;49.64
11912;BME280;6016;41.928;25.556;2022-08-05T05:12:33;98991.94;;;26.47;49.17
11912;BME280;6016;41.928;25.556;2022-08-05T05:15:00;98828.75;;;25.51;48.97
11912;BME280;6016;41.928;25.556;2022-08-05T05:17:35;98917.19;;;26.07;48.17
11912;BME280;6016;41.928;25.556;2022-08-05T05:20:04;98868.03;;;25.59;49.24
11912;BME280;6016;41.928;25.556;2022-08-05T05:22:31;98932.34;;;26.08;48.94
11912;BME280;6016;41.928;25.556;2022-08-05T05:24:58;98919.16;;;26.11;48.38
11912;BME280;6016;41.928;25.556;2022-08-05T05:27:25;98887.88;;;25.81;48.18
11912;BME280;6016;41.928;25.556;2022-08-05T05:29:52;98936.69;;;25.92;47.28
11912;BME280;6016;41.928;25.556;2022-08-05T05:32:19;98983.75;;;26.25;47.97
11912;BME280;6016;41.928;25.556;2022-08-05T05:34:47;98891.63;;;25.63;48.24
11912;BME280;6016;41.928;25.556;2022-08-05T05:37:14;98926.34;;;25.72;48.10
11912;BME280;6016;41.928;25.556;2022-08-05T05:39:41;98887.28;;;25.62;48.00
11912;BME280;6016;41.928;25.556;2022-08-05T05:42:08;98992.09;;;26.40;48.10
11912;BME280;6016;41.928;25.556;2022-08-05T05:44:35;98861.84;;;25.58;47.81
11912;BME280;6016;41.928;25.556;2022-08-05T05:47:02;98975.47;;;26.32;47.95
11912;BME280;6016;41.928;25.556;2022-08-05T05:49:29;98886.25;;;25.80;47.45
11912;BME280;6016;41.928;25.556;2022-08-05T05:51:58;99003.09;;;26.51;47.84
11912;BME280;6016;41.928;25.556;2022-08-05T05:54:24;98903.53;;;25.96;47.86
11912;BME280;6016;41.928;25.556;2022-08-05T05:56:51;98803.22;;;25.41;47.94
11912;BME280;6016;41.928;25.556;2022-08-05T05:59:18;98945.88;;;26.08;47.39
11912;BME280;6016;41.928;25.556;2022-08-05T06:01:45;98972.16;;;26.47;47.51
11912;BME280;6016;41.928;25.556;2022-08-05T06:04:13;98954.88;;;26.48;48.56
11912;BME280;6016;41.928;25.556;2022-08-05T06:06:40;98942.59;;;26.40;48.10
11912;BME280;6016;41.928;25.556;2022-08-05T06:09:09;98828.59;;;25.75;48.42
11912;BME280;6016;41.928;25.556;2022-08-05T06:11:36;98982.13;;;26.80;48.74
11912;BME280;6016;41.928;25.556;2022-08-05T06:14:03;98984.69;;;26.87;48.07
11912;BME280;6016;41.928;25.556;2022-08-05T06:16:30;98976.63;;;26.92;48.63
11912;BME280;6016;41.928;25.556;2022-08-05T06:18:57;98921.94;;;26.51;48.49
11912;BME280;6016;41.928;25.556;2022-08-05T06:21:24;98985.63;;;26.98;49.18
11912;BME280;6016;41.928;25.556;2022-08-05T06:23:51;98991.59;;;27.00;48.19
11912;BME280;6016;41.928;25.556;2022-08-05T06:26:19;99027.13;;;27.04;48.86
11912;BME280;6016;41.928;25.556;2022-08-05T06:28:46;98919.69;;;26.48;48.06
11912;BME280;6016;41.928;25.556;2022-08-05T06:31:13;98936.78;;;26.71;47.48
11912;BME280;6016;41.928;25.556;2022-08-05T06:33:40;98957.34;;;26.89;47.67
11912;BME280;6016;41.928;25.556;2022-08-05T06:36:08;98978.44;;;27.09;47.49
11912;BME280;6016;41.928;25.556;2022-08-05T06:38:35;98982.78;;;27.10;47.69
11912;BME280;6016;41.928;25.556;2022-08-05T06:41:02;98918.22;;;26.79;46.99
11912;BME280;6016;41.928;25.556;2022-08-05T06:43:30;98994.50;;;27.38;47.34
11912;BME280;6016;41.928;25.556;2022-08-05T06:45:57;98677.75;;;25.32;47.23
11912;BME280;6016;41.928;25.556;2022-08-05T06:48:24;99001.03;;;27.42;47.07
11912;BME280;6016;41.928;25.556;2022-08-05T06:50:51;98939.09;;;27.01;46.85
11912;BME280;6016;41.928;25.556;2022-08-05T06:53:17;98962.38;;;27.02;46.73
11912;BME280;6016;41.928;25.556;2022-08-05T06:55:44;99013.06;;;27.51;46.56
11912;BME280;6016;41.928;25.556;2022-08-05T06:58:11;98999.59;;;27.57;46.00
11912;BME280;6016;41.928;25.556;2022-08-05T07:00:39;98984.53;;;27.44;45.64
11912;BME280;6016;41.928;25.556;2022-08-05T07:03:06;98880.75;;;26.88;45.51
11912;BME280;6016;41.928;25.556;2022-08-05T07:05:33;98888.97;;;26.99;45.39
11912;BME280;6016;41.928;25.556;2022-08-05T07:08:00;98917.91;;;27.20;45.12
11912;BME280;6016;41.928;25.556;2022-08-05T07:10:27;99001.50;;;27.84;45.35
11912;BME280;6016;41.928;25.556;2022-08-05T07:12:57;99001.03;;;27.92;45.29
11912;BME280;6016;41.928;25.556;2022-08-05T07:15:42;99005.69;;;27.97;44.78
11912;BME280;6016;41.928;25.556;2022-08-05T07:18:26;99006.28;;;28.04;45.70
11912;BME280;6016;41.928;25.556;2022-08-05T07:20:53;99005.50;;;28.08;44.38
11912;BME280;6016;41.928;25.556;2022-08-05T07:23:20;99003.34;;;28.11;44.94
11912;BME280;6016;41.928;25.556;2022-08-05T07:25:46;98986.44;;;27.98;44.66
11912;BME280;6016;41.928;25.556;2022-08-05T07:28:13;99006.72;;;28.18;44.91
11912;BME280;6016;41.928;25.556;2022-08-05T07:30:42;99025.78;;;28.28;44.59
11912;BME280;6016;41.928;25.556;2022-08-05T07:33:11;99013.09;;;28.34;44.64
11912;BME280;6016;41.928;25.556;2022-08-05T07:35:38;98841.06;;;27.27;44.24
11912;BME280;6016;41.928;25.556;2022-08-05T07:38:05;98981.84;;;28.31;43.52
11912;BME280;6016;41.928;25.556;2022-08-05T07:40:32;98936.84;;;28.03;43.21
11912;BME280;6016;41.928;25.556;2022-08-05T07:42:59;98941.38;;;28.19;43.62
11912;BME280;6016;41.928;25.556;2022-08-05T07:45:26;99019.56;;;28.71;42.79
11912;BME280;6016;41.928;25.556;2022-08-05T07:47:54;98941.16;;;28.31;43.15
11912;BME280;6016;41.928;25.556;2022-08-05T07:50:21;99007.72;;;28.82;43.45
11912;BME280;6016;41.928;25.556;2022-08-05T07:52:48;98907.50;;;28.27;43.44
11912;BME280;6016;41.928;25.556;2022-08-05T07:55:15;98978.69;;;28.88;43.66
11912;BME280;6016;41.928;25.556;2022-08-05T07:57:42;99001.03;;;29.05;43.89
11912;BME280;6016;41.928;25.556;2022-08-05T08:00:11;98889.13;;;28.45;44.07
11912;BME280;6016;41.928;25.556;2022-08-05T08:02:39;98964.09;;;28.99;43.08
11912;BME280;6016;41.928;25.556;2022-08-05T08:05:07;98993.22;;;29.25;42.62
11912;BME280;6016;41.928;25.556;2022-08-05T08:07:34;98959.50;;;29.10;43.03
11912;BME280;6016;41.928;25.556;2022-08-05T08:10:01;98938.31;;;29.12;42.84
11912;BME280;6016;41.928;25.556;2022-08-05T08:12:29;98872.13;;;28.60;42.61
11912;BME280;6016;41.928;25.556;2022-08-05T08:14:56;98986.84;;;29.57;42.56
11912;BME280;6016;41.928;25.556;2022-08-05T08:17:23;98937.84;;;29.36;42.71
11912;BME280;6016;41.928;25.556;2022-08-05T08:19:50;98984.97;;;29.73;42.85
11912;BME280;6016;41.928;25.556;2022-08-05T08:22:24;98970.25;;;29.69;42.37
11912;BME280;6016;41.928;25.556;2022-08-05T08:24:51;98966.19;;;29.76;41.36
11912;BME280;6016;41.928;25.556;2022-08-05T08:27:19;98981.97;;;30.00;41.94
11912;BME280;6016;41.928;25.556;2022-08-05T08:29:46;98825.84;;;29.03;40.80
11912;BME280;6016;41.928;25.556;2022-08-05T08:32:13;98914.00;;;29.69;41.60
11912;BME280;6016;41.928;25.556;2022-08-05T08:34:40;98810.38;;;29.14;42.06
11912;BME280;6016;41.928;25.556;2022-08-05T08:37:06;98980.66;;;30.29;41.14
11912;BME280;6016;41.928;25.556;2022-08-05T08:39:35;98972.75;;;30.38;40.94
11912;BME280;6016;41.928;25.556;2022-08-05T08:42:02;98976.56;;;30.42;40.44
11912;BME280;6016;41.928;25.556;2022-08-05T08:44:30;98964.28;;;30.50;40.33
11912;BME280;6016;41.928;25.556;2022-08-05T08:46:59;98972.19;;;30.56;40.54
11912;BME280;6016;41.928;25.556;2022-08-05T08:49:30;98961.81;;;30.64;39.83
11912;BME280;6016;41.928;25.556;2022-08-05T08:52:05;98912.31;;;30.36;40.15
11912;BME280;6016;41.928;25.556;2022-08-05T08:54:35;98949.81;;;30.80;39.79
11912;BME280;6016;41.928;25.556;2022-08-05T08:57:04;98942.16;;;30.82;38.59
11912;BME280;6016;41.928;25.556;2022-08-05T08:59:32;98967.44;;;30.93;38.40
11912;BME280;6016;41.928;25.556;2022-08-05T09:01:59;98960.91;;;30.99;38.41
11912;BME280;6016;41.928;25.556;2022-08-05T09:04:26;98959.78;;;31.06;39.42
11912;BME280;6016;41.928;25.556;2022-08-05T09:06:53;98964.13;;;31.12;39.75
11912;BME280;6016;41.928;25.556;2022-08-05T09:09:20;98963.81;;;31.19;38.87
11912;BME280;6016;41.928;25.556;2022-08-05T09:11:49;98943.16;;;31.02;38.38
11912;BME280;6016;41.928;25.556;2022-08-05T09:14:16;98916.00;;;30.92;39.37
11912;BME280;6016;41.928;25.556;2022-08-05T09:16:43;98955.34;;;31.20;38.74
11912;BME280;6016;41.928;25.556;2022-08-05T09:19:10;98906.69;;;30.98;38.32
11912;BME280;6016;41.928;25.556;2022-08-05T09:21:37;98814.91;;;30.27;39.44
11912;BME280;6016;41.928;25.556;2022-08-05T09:24:05;98920.66;;;30.86;38.77
11912;BME280;6016;41.928;25.556;2022-08-05T09:26:34;98920.06;;;30.84;39.26
11912;BME280;6016;41.928;25.556;2022-08-05T09:29:04;98944.78;;;31.03;39.37
11912;BME280;6016;41.928;25.556;2022-08-05T09:31:32;98922.75;;;30.94;40.11
11912;BME280;6016;41.928;25.556;2022-08-05T09:34:01;98885.19;;;30.91;39.13
11912;BME280;6016;41.928;25.556;2022-08-05T09:36:39;98892.47;;;31.06;39.07
11912;BME280;6016;41.928;25.556;2022-08-05T09:39:08;98925.00;;;31.42;38.41
11912;BME280;6016;41.928;25.556;2022-08-05T09:41:53;98919.78;;;31.46;38.55
11912;BME280;6016;41.928;25.556;2022-08-05T09:44:38;98919.34;;;31.28;39.54
11912;BME280;6016;41.928;25.556;2022-08-05T09:47:11;98926.44;;;31.29;39.93
11912;BME280;6016;41.928;25.556;2022-08-05T09:49:43;98920.19;;;31.19;39.26
11912;BME280;6016;41.928;25.556;2022-08-05T09:52:22;98930.09;;;30.99;39.82
11912;BME280;6016;41.928;25.556;2022-08-05T09:54:58;98915.34;;;31.10;40.35
11912;BME280;6016;41.928;25.556;2022-08-05T09:57:30;98741.41;;;30.32;39.58
11912;BME280;6016;41.928;25.556;2022-08-05T09:59:59;98901.47;;;31.52;38.78
11912;BME280;6016;41.928;25.556;2022-08-05T10:02:31;98864.38;;;31.51;39.50
11912;BME280;6016;41.928;25.556;2022-08-05T10:05:07;98894.97;;;31.82;38.75
11912;BME280;6016;41.928;25.556;2022-08-05T10:07:43;98893.06;;;31.83;38.04
11912;BME280;6016;41.928;25.556;2022-08-05T10:10:10;98851.16;;;31.68;38.01
11912;BME280;6016;41.928;25.556;2022-08-05T10:12:42;98874.09;;;31.97;37.14
11912;BME280;6016;41.928;25.556;2022-08-05T10:15:15;98872.03;;;32.13;36.12
11912;BME280;6016;41.928;25.556;2022-08-05T10:17:42;98809.03;;;31.85;37.43
11912;BME280;6016;41.928;25.556;2022-08-05T10:20:10;98866.41;;;32.28;36.55
11912;BME280;6016;41.928;25.556;2022-08-05T10:22:39;98866.38;;;32.34;35.67
11912;BME280;6016;41.928;25.556;2022-08-05T10:25:06;98861.09;;;32.42;36.08
11912;BME280;6016;41.928;25.556;2022-08-05T10:27:34;98853.75;;;32.43;35.48
11912;BME280;6016;41.928;25.556;2022-08-05T10:30:01;98855.22;;;32.54;34.95
11912;BME280;6016;41.928;25.556;2022-08-05T10:32:31;98789.97;;;32.28;35.62
11912;BME280;6016;41.928;25.556;2022-08-05T10:34:59;98847.41;;;32.67;34.87
11912;BME280;6016;41.928;25.556;2022-08-05T10:37:26;98854.53;;;32.68;34.29
11912;BME280;6016;41.928;25.556;2022-08-05T10:39:56;98853.59;;;32.53;35.39
11912;BME280;6016;41.928;25.556;2022-08-05T10:42:25;98847.16;;;32.44;34.97
11912;BME280;6016;41.928;25.556;2022-08-05T10:44:54;98853.88;;;32.27;36.04
11912;BME280;6016;41.928;25.556;2022-08-05T10:47:31;98848.06;;;32.10;36.03
11912;BME280;6016;41.928;25.556;2022-08-05T10:50:03;98822.16;;;31.78;35.61
11912;BME280;6016;41.928;25.556;2022-08-05T10:52:39;98859.91;;;32.00;36.83
11912;BME280;6016;41.928;25.556;2022-08-05T10:55:09;98846.38;;;32.14;36.12
11912;BME280;6016;41.928;25.556;2022-08-05T10:57:38;98824.16;;;32.26;35.18
11912;BME280;6016;41.928;25.556;2022-08-05T11:00:10;98815.88;;;32.36;35.20
11912;BME280;6016;41.928;25.556;2022-08-05T11:03:08;98831.94;;;32.62;35.08
11912;BME280;6016;41.928;25.556;2022-08-05T11:05:36;98823.78;;;32.76;34.04
11912;BME280;6016;41.928;25.556;2022-08-05T11:08:04;98753.78;;;32.42;33.71
11912;BME280;6016;41.928;25.556;2022-08-05T11:10:32;98800.94;;;32.91;33.38
11912;BME280;6016;41.928;25.556;2022-08-05T11:12:59;98795.31;;;33.02;33.37
11912;BME280;6016;41.928;25.556;2022-08-05T11:15:27;98811.84;;;33.30;33.82
11912;BME280;6016;41.928;25.556;2022-08-05T11:18:07;98701.56;;;32.68;32.33
11912;BME280;6016;41.928;25.556;2022-08-05T11:20:37;98779.69;;;33.21;33.75
11912;BME280;6016;41.928;25.556;2022-08-05T11:23:33;98813.53;;;33.25;34.12
11912;BME280;6016;41.928;25.556;2022-08-05T11:26:06;98810.22;;;33.29;33.22
11912;BME280;6016;41.928;25.556;2022-08-05T11:28:54;98809.16;;;33.44;33.18
11912;BME280;6016;41.928;25.556;2022-08-05T11:31:29;98807.69;;;33.51;32.99
11912;BME280;6016;41.928;25.556;2022-08-05T11:34:03;98792.06;;;33.52;32.43
11912;BME280;6016;41.928;25.556;2022-08-05T11:36:49;98756.75;;;33.36;32.74
11912;BME280;6016;41.928;25.556;2022-08-05T11:39:47;98801.53;;;33.74;31.20
11912;BME280;6016;41.928;25.556;2022-08-05T11:42:15;98794.25;;;33.83;31.43
11912;BME280;6016;41.928;25.556;2022-08-05T11:44:43;98736.03;;;33.49;32.09
11912;BME280;6016;41.928;25.556;2022-08-05T11:47:11;98681.28;;;33.21;33.01
11912;BME280;6016;41.928;25.556;2022-08-05T11:49:39;98768.28;;;33.80;31.27
11912;BME280;6016;41.928;25.556;2022-08-05T11:52:07;98796.97;;;33.97;31.12
11912;BME280;6016;41.928;25.556;2022-08-05T11:54:34;98789.84;;;34.01;31.78
11912;BME280;6016;41.928;25.556;2022-08-05T11:57:03;98783.75;;;34.04;31.50
11912;BME280;6016;41.928;25.556;2022-08-05T11:59:31;98779.19;;;34.14;30.83
11912;BME280;6016;41.928;25.556;2022-08-05T12:02:00;98765.19;;;34.01;31.38
11912;BME280;6016;41.928;25.556;2022-08-05T12:04:35;98733.81;;;33.93;31.20
11912;BME280;6016;41.928;25.556;2022-08-05T12:07:05;98773.38;;;34.29;31.12
11912;BME280;6016;41.928;25.556;2022-08-05T12:09:36;98302.56;;;31.28;31.43
11912;BME280;6016;41.928;25.556;2022-08-05T12:12:03;98742.78;;;34.13;30.71
11912;BME280;6016;41.928;25.556;2022-08-05T12:14:35;98745.19;;;34.29;30.29
11912;BME280;6016;41.928;25.556;2022-08-05T12:17:06;98756.34;;;34.32;30.45
11912;BME280;6016;41.928;25.556;2022-08-05T12:19:40;98762.09;;;34.45;30.82
11912;BME280;6016;41.928;25.556;2022-08-05T12:22:08;98762.78;;;34.50;30.51
11912;BME280;6016;41.928;25.556;2022-08-05T12:24:39;98736.34;;;34.32;31.01
11912;BME280;6016;41.928;25.556;2022-08-05T12:27:07;98760.28;;;34.40;31.20
11912;BME280;6016;41.928;25.556;2022-08-05T12:29:34;98761.63;;;34.15;31.13
11912;BME280;6016;41.928;25.556;2022-08-05T12:32:01;98759.31;;;34.08;31.09
11912;BME280;6016;41.928;25.556;2022-08-05T12:34:29;98758.56;;;34.16;31.44
11912;BME280;6016;41.928;25.556;2022-08-05T12:36:59;98746.84;;;34.16;30.82
11912;BME280;6016;41.928;25.556;2022-08-05T12:39:32;98742.78;;;33.99;30.71
11912;BME280;6016;41.928;25.556;2022-08-05T12:41:59;98746.84;;;34.02;31.65
11912;BME280;6016;41.928;25.556;2022-08-05T12:44:26;98743.38;;;34.10;31.35
11912;BME280;6016;41.928;25.556;2022-08-05T12:46:54;98739.41;;;34.16;30.52
11912;BME280;6016;41.928;25.556;2022-08-05T12:49:21;98737.59;;;34.26;30.99
11912;BME280;6016;41.928;25.556;2022-08-05T12:51:50;98730.97;;;34.27;30.58
11912;BME280;6016;41.928;25.556;2022-08-05T12:54:19;98762.22;;;34.26;30.93
11912;BME280;6016;41.928;25.556;2022-08-05T12:56:49;98716.44;;;34.03;30.77
11912;BME280;6016;41.928;25.556;2022-08-05T12:59:18;98720.16;;;33.79;31.09
11912;BME280;6016;41.928;25.556;2022-08-05T13:01:53;98729.38;;;33.84;30.46
11912;BME280;6016;41.928;25.556;2022-08-05T13:04:21;98704.25;;;33.53;30.74
11912;BME280;6016;41.928;25.556;2022-08-05T13:06:47;98720.94;;;33.52;31.62
11912;BME280;6016;41.928;25.556;2022-08-05T13:09:14;98729.31;;;33.42;31.41
11912;BME280;6016;41.928;25.556;2022-08-05T13:11:42;98723.78;;;33.47;31.67